Latest Weather Observations for High Range (Wanganderry)

IDN60801

Issued at 2:03 pm EST Thursday 28 May 2020 (issued every 10 minutes, with the page automatically refreshed every 10 minutes)

About weather observations | Map of weather stations | Latest weather observations for NSW | Other Formats
Station Details ID: 068262 Name: HIGH RANGE AWS (WANGANDERRY) Lat: -34.33 Lon: 150.27 Height: 813.6 m
Data from the previous 72 hours. | See also: Recent months for locations in New South Wales
Date/Time
EST
Temp
°C
App
Temp
°C
Dew
Point
°C
Rel
Hum
%
Delta-T
°C
Wind Press
QNH
hPa
Press
MSL
hPa
Rain since
9am
mm
Dir  Spd
km/h
Gust
km/h
Spd
kts
Gust
kts
28/02:00pm 12.5 8.3 7.4 71 2.6 SW 19 24 10 13 1021.0 1020.4 0.0
28/01:30pm 11.8 7.6 7.5 75 2.2 WSW 19 28 10 15 1021.0 1020.4 0.0
28/01:00pm 12.9 9.0 8.8 76 2.1 WSW 19 26 10 14 1021.2 1020.6 0.0
28/12:30pm 13.2 8.8 9.1 76 2.2 WSW 22 30 12 16 1021.5 1021.0 0.0
28/12:00pm 11.9 7.4 8.7 81 1.7 WSW 22 30 12 16 1021.6 1021.1 0.0
28/11:30am 12.2 7.4 8.7 79 1.8 WSW 24 32 13 17 1021.9 1021.4 0.0
28/11:00am 12.5 9.2 9.5 82 1.6 WSW 17 24 9 13 1022.1 1021.6 0.0
28/10:30am 11.8 8.1 8.1 78 1.9 W 17 20 9 11 1022.4 1021.9 0.0
28/10:00am 11.2 6.6 8.2 82 1.5 W 22 30 12 16 1022.5 1022.0 0.0
28/09:30am 10.7 6.6 8.5 86 1.1 W 20 28 11 15 1022.4 1021.9 0.0
28/09:00am 10.2 5.2 8.1 87 1.1 WSW 24 32 13 17 1022.3 1021.7 0.0
28/08:30am 9.2 4.1 7.8 91 0.7 WSW 24 30 13 16 1022.3 1021.7 0.0
28/08:00am 8.8 3.7 7.6 92 0.6 WSW 24 30 13 16 1021.8 1021.3 0.0
28/07:30am 7.9 3.9 6.8 93 0.5 W 17 20 9 11 1021.7 1021.2 0.0
28/07:00am 7.9 3.4 6.8 93 0.5 W 20 26 11 14 1021.4 1020.9 0.0
28/06:30am 7.9 3.3 6.5 91 0.7 W 20 22 11 12 1021.0 1020.4 0.0
28/06:00am 8.0 3.4 6.6 91 0.7 W 20 26 11 14 1020.7 1020.2 0.0
28/05:30am 8.0 3.1 6.9 93 0.5 W 22 30 12 16 1020.4 1019.9 0.0
28/05:00am 7.8 3.3 6.9 94 0.4 W 20 24 11 13 1020.3 1019.8 0.0
28/04:30am 8.0 3.1 6.8 92 0.6 W 22 24 12 13 1020.3 1019.8 0.0
28/04:00am 8.3 3.7 6.6 89 0.8 WSW 20 22 11 12 1020.4 1019.9 0.0
28/03:30am 8.1 3.8 6.9 92 0.6 WSW 19 20 10 11 1020.4 1019.9 0.0
28/03:00am 8.8 4.6 7.3 90 0.7 SW 19 24 10 13 1020.4 1019.9 0.0
28/02:30am 8.9 5.3 8.3 96 0.3 SW 17 19 9 10 1020.4 1019.9 0.0
28/02:00am 9.1 6.1 7.5 90 0.8 SW 13 15 7 8 1020.4 1019.9 0.0
28/01:30am 9.0 6.0 7.8 92 0.6 SW 13 15 7 8 1020.4 1019.9 0.0
28/01:00am 8.8 6.1 8.8 100 0.0 SW 13 15 7 8 1020.4 1019.9 0.0
28/12:30am 8.7 6.3 8.7 100 0.0 SW 11 13 6 7 1020.5 1020.0 0.0
28/12:00am 8.6 6.6 8.6 100 0.0 SW 9 9 5 5 1020.7 1020.2 0.0
 
Date/Time
EST
Temp
°C
App
Temp
°C
Dew
Point
°C
Rel
Hum
%
Delta-T
°C
Wind Press
QNH
hPa
Press
MSL
hPa
Rain since
9am
mm
Dir  Spd
km/h
Gust
km/h
Spd
kts
Gust
kts
27/11:30pm 9.3 8.4 9.3 100 0.0 SW 4 6 2 3 1020.8 1020.3 0.0
27/11:00pm 9.0 7.5 9.0 100 0.0 SW 7 7 4 4 1020.8 1020.3 0.0
27/10:30pm 9.5 8.3 9.5 100 0.0 SW 6 6 3 3 1021.0 1020.4 0.0
27/10:00pm 9.2 7.7 9.2 100 0.0 SW 7 9 4 5 1021.2 1020.6 0.0
27/09:30pm 8.8 6.8 8.8 100 0.0 SW 9 9 5 5 1021.6 1021.1 0.0
27/09:00pm 9.7 7.4 8.9 95 0.4 SW 11 13 6 7 1021.6 1021.1 0.0
27/08:30pm 9.8 8.0 7.9 88 1.0 SW 7 9 4 5 1021.4 1020.9 0.0
27/08:00pm 9.7 7.8 7.6 87 1.0 SW 7 9 4 5 1021.5 1021.0 0.0
27/07:30pm 10.8 9.0 7.9 82 1.5 SW 7 9 4 5 1021.5 1021.0 0.0
27/07:00pm 10.7 9.2 7.0 78 1.8 SW 4 6 2 3 1021.2 1020.6 0.0
27/06:30pm 10.5 8.8 7.7 83 1.4 SW 6 6 3 3 1021.2 1020.6 0.0
27/06:00pm 10.6 9.1 8.5 87 1.1 SW 6 6 3 3 1021.0 1020.4 0.0
27/05:30pm 10.6 9.6 8.9 89 0.9 SW 4 4 2 2 1020.8 1020.3 0.0
27/05:00pm 10.9 10.7 9.0 88 1.0 CALM 0 6 0 3 1020.8 1020.3 0.0
27/04:30pm 11.1 10.3 9.5 90 0.8 SW 4 6 2 3 1020.5 1020.0 0.0
27/04:00pm 11.6 10.6 9.0 84 1.4 SW 4 4 2 2 1020.4 1019.9 0.0
27/03:30pm 12.2 10.6 8.1 76 2.1 SW 6 7 3 4 1020.5 1020.0 0.0
27/03:00pm 12.4 11.0 7.3 71 2.6 SW 4 9 2 5 1020.4 1019.9 0.0
27/02:30pm 13.0 11.6 8.7 75 2.3 SW 6 9 3 5 1020.5 1020.0 0.0
27/02:00pm 12.3 11.0 7.6 73 2.4 SW 4 6 2 3 1020.7 1020.2 0.0
27/01:30pm 13.1 10.9 8.0 71 2.6 SW 9 13 5 7 1020.8 1020.3 0.0
27/01:00pm 13.3 11.7 8.8 74 2.4 SW 7 11 4 6 1021.3 1020.7 0.0
27/12:30pm 11.2 9.9 9.1 87 1.1 SW 6 9 3 5 1021.7 1021.2 0.0
27/12:00pm 10.0 8.9 10.0 100 0.0 SW 6 9 3 5 1021.9 1021.4 0.0
27/11:30am 9.5 8.7 9.5 100 0.0 SSW 4 6 2 3 1022.3 1021.7 0.0
27/11:00am 9.4 8.5 9.4 100 0.0 SSW 4 6 2 3 1022.8 1022.3 0.0
27/10:30am 9.3 8.0 9.3 100 0.0 SW 6 7 3 4 1023.2 1022.7 0.0
27/10:00am 8.9 7.5 8.9 100 0.0 SW 6 7 3 4 1023.3 1022.8 0.0
27/09:30am 8.3 6.6 8.3 100 0.0 SW 7 11 4 6 1023.3 1022.8 0.0
27/09:00am 7.8 5.6 7.8 100 0.0 SSW 9 11 5 6 1023.2 1022.7 2.4
27/08:30am 7.1 4.7 7.1 100 0.0 SW 9 11 5 6 1023.2 1022.7 2.4
27/08:00am 7.2 4.5 7.2 100 0.0 SW 11 13 6 7 1023.3 1022.8 2.4
27/07:30am 6.8 4.0 6.8 100 0.0 SSW 11 13 6 7 1023.1 1022.6 2.4
27/07:00am 6.7 4.2 6.7 100 0.0 SSW 9 9 5 5 1022.8 1022.3 2.2
27/06:30am 7.1 4.3 7.1 100 0.0 SSW 11 13 6 7 1022.8 1022.3 2.2
27/06:00am 7.4 4.3 7.4 100 0.0 SSW 13 17 7 9 1022.7 1022.2 2.2
27/05:30am 7.4 4.7 7.4 100 0.0 SSW 11 15 6 8 1022.6 1022.1 2.2
27/05:00am 7.6 5.3 7.6 100 0.0 SSW 9 11 5 6 1022.6 1022.1 2.2
27/04:30am 7.7 5.1 7.7 100 0.0 SSW 11 13 6 7 1022.7 1022.2 2.2
27/04:00am 7.8 5.6 7.8 100 0.0 SSW 9 11 5 6 1022.9 1022.4 2.2
27/03:30am 7.7 4.7 7.7 100 0.0 S 13 17 7 9 1022.8 1022.3 2.2
27/03:00am 7.8 5.2 7.8 100 0.0 SSW 11 15 6 8 1023.1 1022.6 2.2
27/02:30am 7.8 4.8 7.8 100 0.0 SSW 13 15 7 8 1023.5 1023.1 2.2
27/02:00am 7.9 4.9 7.9 100 0.0 SSW 13 17 7 9 1023.9 1023.4 2.2
27/01:30am 7.8 5.2 7.8 100 0.0 S 11 15 6 8 1023.8 1023.3 2.2
27/01:00am 7.6 4.6 7.6 100 0.0 SSW 13 17 7 9 1023.8 1023.3 2.2
27/12:30am 7.8 4.4 7.8 100 0.0 S 15 19 8 10 1024.0 1023.5 2.2
27/12:00am 7.9 4.9 7.9 100 0.0 S 13 15 7 8 1024.0 1023.5 2.2
 
Date/Time
EST
Temp
°C
App
Temp
°C
Dew
Point
°C
Rel
Hum
%
Delta-T
°C
Wind Press
QNH
hPa
Press
MSL
hPa
Rain since
9am
mm
Dir  Spd
km/h
Gust
km/h
Spd
kts
Gust
kts
26/11:30pm 8.2 5.3 8.2 100 0.0 S 13 15 7 8 1024.4 1023.9 2.2
26/11:00pm 8.2 4.9 8.2 100 0.0 S 15 19 8 10 1024.5 1024.1 2.0
26/10:30pm 8.3 4.7 8.3 100 0.0 S 17 20 9 11 1024.3 1023.8 2.0
26/10:00pm 8.5 5.3 8.5 100 0.0 S 15 19 8 10 1024.2 1023.7 2.0
26/09:30pm 8.5 4.9 8.5 100 0.0 S 17 20 9 11 1024.2 1023.7 2.0
26/09:00pm 8.3 4.7 8.3 100 0.0 S 17 20 9 11 1024.3 1023.8 2.0
26/08:30pm 8.1 4.4 8.1 100 0.0 S 17 20 9 11 1024.2 1023.7 2.0
26/08:00pm 8.2 4.6 8.2 100 0.0 S 17 22 9 12 1024.2 1023.7 2.0
26/07:30pm 8.2 4.9 8.2 100 0.0 S 15 17 8 9 1024.2 1023.7 2.0
26/07:00pm 8.1 5.2 8.1 100 0.0 S 13 17 7 9 1024.0 1023.5 2.0
26/06:30pm 8.6 5.1 8.6 100 0.0 S 17 20 9 11 1023.9 1023.4 2.0
26/06:00pm 8.7 5.6 8.7 100 0.0 SSE 15 22 8 12 1023.5 1023.1 2.0
26/05:30pm 8.9 6.2 8.9 100 0.0 S 13 17 7 9 1023.7 1023.2 1.8
26/05:00pm 9.0 5.9 9.0 100 0.0 SSE 15 20 8 11 1023.4 1023.0 1.8
26/04:30pm 9.0 5.9 9.0 100 0.0 SSE 15 20 8 11 1023.3 1022.8 1.8
26/04:00pm 9.0 5.0 9.0 100 0.0 SSE 20 30 11 16 1023.2 1022.7 1.8
26/03:30pm 10.1 7.3 10.1 100 0.0 SE 15 26 8 14 1022.9 1022.4 1.4
26/03:00pm 9.6 5.9 9.6 100 0.0 SE 19 28 10 15 1022.7 1022.2 1.4
26/02:30pm 9.6 5.7 9.6 100 0.0 SE 20 30 11 16 1022.7 1022.2 1.4
26/02:00pm 9.5 5.6 9.5 100 0.0 SSE 20 30 11 16 1022.4 1021.9 1.4
26/01:30pm 9.9 4.6 9.9 100 0.0 SSE 28 39 15 21 1022.6 1022.1 1.2
26/01:00pm 10.2 5.0 10.2 100 0.0 S 28 35 15 19 1023.0 1022.5 1.2
26/12:30pm 10.6 6.6 10.6 100 0.0 SSE 22 30 12 16 1023.3 1022.8 1.2
26/12:00pm 10.0 5.9 10.0 100 0.0 SSE 22 26 12 14 1023.7 1023.2 1.2
26/11:30am 10.5 6.9 10.5 100 0.0 S 20 28 11 15 1024.1 1023.6 0.8
26/11:00am 10.1 6.9 10.1 100 0.0 SSW 17 20 9 11 1024.3 1023.8 0.8
26/10:30am 9.9 7.5 9.9 100 0.0 SSW 13 17 7 9 1024.5 1024.1 0.4
26/10:00am 9.2 6.2 9.2 100 0.0 SSW 15 19 8 10 1024.4 1023.9 0.2
26/09:30am 8.7 4.8 8.7 100 0.0 SSW 19 20 10 11 1024.1 1023.6 0.2
26/09:00am 8.3 3.7 8.3 100 0.0 SSW 22 26 12 14 1024.0 1023.5 1.0
26/08:30am 8.0 3.4 8.0 100 0.0 SSW 22 26 12 14 1023.7 1023.2 1.0
26/08:00am 8.0 3.4 8.0 100 0.0 SSW 22 28 12 15 1023.2 1022.7 1.0
26/07:30am 7.8 2.7 7.8 100 0.0 SSW 24 30 13 16 1023.0 1022.5 1.0
26/07:00am 7.5 2.4 7.5 100 0.0 SSW 24 28 13 15 1022.8 1022.3 1.0
26/06:30am 7.5 2.4 7.5 100 0.0 SSW 24 32 13 17 1022.6 1022.1 0.8
26/06:00am 7.4 2.2 7.4 100 0.0 SSW 24 30 13 16 1022.5 1022.0 0.8
26/05:30am 7.3 1.7 7.3 100 0.0 SSW 26 30 14 16 1022.4 1021.9 0.8
26/05:00am 7.2 2.0 7.2 100 0.0 SW 24 28 13 15 1022.3 1021.7 0.8
26/04:30am 7.2 2.8 7.2 100 0.0 SSW 20 26 11 14 1022.1 1021.6 0.6
26/04:00am 7.2 1.6 7.2 100 0.0 SW 26 30 14 16 1022.1 1021.6 0.6
26/03:30am 7.2 1.6 7.2 100 0.0 SSW 26 32 14 17 1022.1 1021.6 0.6
26/03:00am 7.4 0.7 7.4 100 0.0 SSW 32 39 17 21 1022.0 1021.5 0.6
26/02:30am 7.5 1.2 7.5 100 0.0 SSW 30 39 16 21 1022.1 1021.6 0.6
26/02:00am 7.4 0.7 7.4 100 0.0 SSW 32 41 17 22 1022.1 1021.6 0.4
26/01:30am 7.3 0.0 7.3 100 0.0 S 35 43 19 23 1022.0 1021.5 0.4
26/01:00am 7.3 0.6 7.3 100 0.0 SSW 32 43 17 23 1022.3 1021.7 0.4
26/12:30am 7.4 2.2 7.4 100 0.0 SSW 24 35 13 19 1022.6 1022.1 0.4
26/12:00am 7.4 1.9 7.4 100 0.0 SSW 26 32 14 17 1022.3 1021.7 0.2
 
Date/Time
EST
Temp
°C
App
Temp
°C
Dew
Point
°C
Rel
Hum
%
Delta-T
°C
Wind Press
QNH
hPa
Press
MSL
hPa
Rain since
9am
mm
Dir  Spd
km/h
Gust
km/h
Spd
kts
Gust
kts
25/11:30pm 7.5 0.8 7.5 100 0.0 SSW 32 39 17 21 1022.0 1021.5 0.2
25/11:00pm 7.6 0.8 7.6 100 0.0 SSW 33 43 18 23 1021.9 1021.4 0.2
25/10:30pm 7.7 0.5 7.7 100 0.0 SSW 35 44 19 24 1021.9 1021.4 0.0
25/10:00pm 7.7 -0.2 7.7 100 0.0 SSW 39 48 21 26 1021.8 1021.3 0.0
25/09:30pm 7.7 0.5 7.7 100 0.0 SSW 35 46 19 25 1021.8 1021.3 0.0
25/09:00pm 7.8 0.6 7.8 100 0.0 SSW 35 43 19 23 1021.7 1021.2 0.0
25/08:30pm 7.8 0.6 7.8 100 0.0 SSW 35 43 19 23 1021.6 1021.1 0.0
25/08:00pm 7.9 0.8 7.9 100 0.0 SSW 35 44 19 24 1021.1 1020.5 0.0
25/07:48pm 7.9 1.1 7.9 100 0.0 SSW 33 54 18 29 1021.0 1020.4 0.0
25/07:30pm 8.0 0.5 8.0 100 0.0 S 37 48 20 26 1020.7 1020.2 0.0
25/07:00pm 8.0 1.3 8.0 100 0.0 SSW 33 44 18 24 1020.6 1020.1 0.0
25/06:30pm 8.1 0.3 8.1 100 0.0 SSW 39 50 21 27 1020.3 1019.8 0.0
25/06:00pm 8.2 1.1 8.2 100 0.0 S 35 46 19 25 1020.3 1019.8 0.0
25/05:30pm 8.2 1.7 8.2 100 0.0 SSW 32 46 17 25 1020.1 1019.5 0.0
25/05:00pm 8.3 0.9 8.3 100 0.0 SSW 37 50 20 27 1019.5 1019.0 0.0
25/04:30pm 8.4 1.0 8.4 100 0.0 SSW 37 52 20 28 1019.2 1018.7 0.0
25/04:00pm 8.6 1.6 8.6 100 0.0 SSW 35 46 19 25 1019.1 1018.5 0.0
25/03:30pm 8.8 1.9 8.8 100 0.0 S 35 48 19 26 1019.1 1018.5 0.0
25/03:00pm 8.9 2.6 8.9 100 0.0 SSW 32 44 17 24 1019.1 1018.5 0.0
25/02:30pm 9.1 1.5 9.1 100 0.0 SSW 39 50 21 27 1018.8 1018.2 0.0

Other formats

Comma delimited format used in spreadsheet applications
http://www.bom.gov.au/fwo/IDN60801/IDN60801.99742.axf

JavaScript Object Notation format (JSON) in row-major order
http://www.bom.gov.au/fwo/IDN60801/IDN60801.99742.json

Data quality

Most of these data are generated automatically and are frequently updated. Quality checks on data are not normally performed. It is possible for incorrect values to appear. Refer to information at About Latest Weather Observations and please check the disclaimer before using these data.